Time;durP1;ratioP1;P1;durP2;ratioP2;P2;SDS_P1;SDS_P2;PMS_P1;PMS_P2;Temp;Humidity;BMP_temperature;BMP_pressure;BME280_temperature;BME280_humidity;BME280_pressure;Samples;Min_cycle;Max_cycle;Signal;HPM_P1;HPM_P2
2023/12/08 00:00:54;;;;;;;17.30;9.50;;;;;;;;;;5055827;28;20056;-74
2023/12/08 00:03:20;;;;;;;;;;;;;;;;;;5084747;28;20047;-75
2023/12/08 00:05:46;;;;;;;33.03;12.93;;;;;;;;;;5072220;28;20293;-75
2023/12/08 00:08:12;;;;;;;23.52;10.68;;;;;;;;;;5067227;28;20052;-77
2023/12/08 00:10:39;;;;;;;22.85;10.70;;;;;;;;;;5055631;28;20079;-74
2023/12/08 00:13:05;;;;;;;;;;;;;;;;;;5054901;28;20045;-74
2023/12/08 00:15:31;;;;;;;27.88;11.40;;;;;;;;;;5038337;28;20388;-74
2023/12/08 00:17:57;;;;;;;;;;;;;;;;;;5053913;28;20044;-74
2023/12/08 00:20:25;;;;;;;18.65;10.13;;;;;;;;;;5050223;28;20362;-73
2023/12/08 00:22:52;;;;;;;19.85;10.27;;;;;;;;;;5052511;28;20090;-76
2023/12/08 00:25:18;;;;;;;21.45;10.93;;;;;;;;;;5046239;28;20061;-74
2023/12/08 00:27:44;;;;;;;;;;;;;;;;;;5046937;28;20056;-74
2023/12/08 00:30:11;;;;;;;32.35;13.48;;;;;;;;;;5054309;28;20316;-74
2023/12/08 00:32:38;;;;;;;28.65;12.68;;;;;;;;;;5036495;28;20440;-74
2023/12/08 00:35:04;;;;;;;21.15;10.27;;;;;;;;;;5052543;28;20048;-74
2023/12/08 00:37:30;;;;;;;21.40;10.50;;;;;;;;;;5048713;28;20465;-76
2023/12/08 00:39:56;;;;;;;32.63;12.98;;;;;;;;;;5033473;28;20053;-74
2023/12/08 00:42:22;;;;;;;22.42;10.48;;;;;;;;;;5025437;28;20080;-74
2023/12/08 00:44:48;;;;;;;36.70;13.07;;;;;;;;;;5069744;28;20048;-74
2023/12/08 00:47:15;;;;;;;35.90;15.30;;;;;;;;;;5048711;28;20095;-74
2023/12/08 00:49:41;;;;;;;35.90;13.05;;;;;;;;;;5040293;28;20044;-75
2023/12/08 00:52:07;;;;;;;28.60;11.73;;;;;;;;;;5047128;28;20049;-74
2023/12/08 00:54:33;;;;;;;36.70;13.60;;;;;;;;;;5063504;28;20510;-74
2023/12/08 00:56:59;;;;;;;34.00;14.10;;;;;;;;;;5036365;28;20106;-74
2023/12/08 00:59:25;;;;;;;25.33;12.30;;;;;;;;;;5058563;28;20499;-76
2023/12/08 01:01:51;;;;;;;22.25;11.60;;;;;;;;;;5044978;28;20152;-74
2023/12/08 01:04:17;;;;;;;;;;;;;;;;;;5072872;28;20071;-74
2023/12/08 01:06:43;;;;;;;25.85;12.65;;;;;;;;;;5052566;28;20370;-74
2023/12/08 01:09:09;;;;;;;;;;;;;;;;;;5067463;28;20045;-74
2023/12/08 01:11:36;;;;;;;22.02;10.68;;;;;;;;;;5052412;28;19981;-74
2023/12/08 01:14:03;;;;;;;26.13;12.05;;;;;;;;;;5052593;28;20076;-75
2023/12/08 01:16:29;;;;;;;34.17;14.23;;;;;;;;;;5051793;28;20048;-74
2023/12/08 01:18:55;;;;;;;24.80;11.80;;;;;;;;;;5059136;28;20086;-74
2023/12/08 01:21:21;;;;;;;27.55;12.55;;;;;;;;;;5067964;28;20063;-78
2023/12/08 01:23:47;;;;;;;21.13;11.02;;;;;;;;;;5043381;28;20048;-74
2023/12/08 01:26:13;;;;;;;;;;;;;;;;;;5065496;28;20072;-74
2023/12/08 01:28:39;;;;;;;24.10;11.35;;;;;;;;;;5051224;28;20346;-74
2023/12/08 01:31:05;;;;;;;;;;;;;;;;;;5064524;28;20137;-74
2023/12/08 01:33:31;;;;;;;25.90;11.60;;;;;;;;;;5045462;28;20333;-74
2023/12/08 01:35:58;;;;;;;23.75;11.23;;;;;;;;;;5063574;28;20391;-74
2023/12/08 01:38:24;;;;;;;;;;;;;;;;;;5028289;28;20171;-77
2023/12/08 01:40:50;;;;;;;23.67;11.30;;;;;;;;;;5065441;28;20019;-74
2023/12/08 01:43:16;;;;;;;;;;;;;;;;;;5044693;28;20521;-74
2023/12/08 01:45:42;;;;;;;20.85;10.93;;;;;;;;;;5049089;28;20023;-74
2023/12/08 01:48:09;;;;;;;25.52;12.50;;;;;;;;;;5052296;28;20394;-74
2023/12/08 01:50:35;;;;;;;31.30;12.98;;;;;;;;;;5036794;28;20056;-74
2023/12/08 01:53:01;;;;;;;28.85;12.75;;;;;;;;;;5061517;28;20091;-74
2023/12/08 01:55:28;;;;;;;22.00;11.90;;;;;;;;;;5054158;28;20084;-77
2023/12/08 01:57:54;;;;;;;24.13;11.25;;;;;;;;;;5069721;28;20041;-75
2023/12/08 02:00:20;;;;;;;;;;;;;;;;;;5037462;28;20056;-74
2023/12/08 02:02:47;;;;;;;21.60;10.50;;;;;;;;;;5066994;28;20410;-75
2023/12/08 02:05:14;;;;;;;33.90;13.40;;;;;;;;;;5056389;28;20132;-74
2023/12/08 02:07:40;;;;;;;26.90;11.75;;;;;;;;;;5070880;28;20044;-74
2023/12/08 02:10:06;;;;;;;21.83;10.82;;;;;;;;;;5017291;28;20135;-74
2023/12/08 02:12:32;;;;;;;24.80;11.98;;;;;;;;;;5052265;28;20120;-74
2023/12/08 02:14:59;;;;;;;;;;;;;;;;;;5072205;28;20080;-74
2023/12/08 02:17:27;;;;;;;33.63;12.75;;;;;;;;;;5052703;28;19966;-73
2023/12/08 02:19:53;;;;;;;32.13;13.23;;;;;;;;;;5062110;28;20045;-74
2023/12/08 02:22:22;;;;;;;25.90;12.20;;;;;;;;;;5069398;28;20056;-75
2023/12/08 02:24:48;;;;;;;31.13;13.57;;;;;;;;;;5070989;28;20059;-74
2023/12/08 02:27:15;;;;;;;20.55;11.20;;;;;;;;;;5050211;28;20052;-73
2023/12/08 02:29:41;;;;;;;21.15;10.80;;;;;;;;;;5053890;28;20459;-74
2023/12/08 02:32:30;;;;;;;23.98;11.38;;;;;;;;;;5060705;28;22384;-75
2023/12/08 02:34:58;;;;;;;21.85;10.77;;;;;;;;;;5026246;28;20059;-74
2023/12/08 02:37:25;;;;;;;24.45;11.05;;;;;;;;;;5057298;28;20079;-74
2023/12/08 02:39:52;;;;;;;23.50;11.20;;;;;;;;;;5063121;28;20379;-74
2023/12/08 02:42:19;;;;;;;24.67;12.55;;;;;;;;;;5044301;28;20055;-74
2023/12/08 02:44:45;;;;;;;23.95;12.10;;;;;;;;;;5046728;28;20052;-73
2023/12/08 02:47:11;;;;;;;23.00;11.32;;;;;;;;;;5039397;28;20052;-74
2023/12/08 02:49:37;;;;;;;;;;;;;;;;;;5071702;28;20051;-74
2023/12/08 02:52:03;;;;;;;30.67;12.10;;;;;;;;;;5064273;28;19920;-74
2023/12/08 02:54:30;;;;;;;;;;;;;;;;;;5066365;28;20596;-74
2023/12/08 02:56:56;;;;;;;21.13;10.17;;;;;;;;;;5051573;28;20520;-76
2023/12/08 02:59:22;;;;;;;;;;;;;;;;;;5064536;28;20116;-75
2023/12/08 03:01:48;;;;;;;24.30;10.15;;;;;;;;;;5048469;28;20011;-74
2023/12/08 03:04:15;;;;;;;20.67;10.40;;;;;;;;;;5044893;28;20052;-76
2023/12/08 03:06:41;;;;;;;21.67;11.20;;;;;;;;;;5045807;28;20048;-74
2023/12/08 03:09:07;;;;;;;21.98;10.55;;;;;;;;;;5036407;28;20149;-74
2023/12/08 03:11:33;;;;;;;;;;;;;;;;;;5061539;28;20041;-75
2023/12/08 03:13:59;;;;;;;22.15;10.45;;;;;;;;;;5045688;28;19920;-74
2023/12/08 03:16:25;;;;;;;22.20;10.88;;;;;;;;;;5047292;28;20045;-74
2023/12/08 03:18:51;;;;;;;;;;;;;;;;;;5066546;28;20049;-74
2023/12/08 03:21:24;;;;;;;21.60;10.20;;;;;;;;;;5038052;28;19926;-75
2023/12/08 03:23:50;;;;;;;23.85;11.18;;;;;;;;;;5044177;28;20056;-75
2023/12/08 03:26:16;;;;;;;23.52;10.90;;;;;;;;;;5045567;28;20041;-74
2023/12/08 03:28:42;;;;;;;25.67;11.15;;;;;;;;;;5046951;28;20056;-74
2023/12/08 03:31:08;;;;;;;;;;;;;;;;;;5044204;28;20220;-74
2023/12/08 03:33:34;;;;;;;22.42;11.38;;;;;;;;;;5050043;28;20023;-74
2023/12/08 03:36:00;;;;;;;32.17;12.10;;;;;;;;;;5062262;28;20071;-74
2023/12/08 03:38:26;;;;;;;33.20;13.80;;;;;;;;;;5046771;28;20072;-74
2023/12/08 03:40:52;;;;;;;35.35;14.85;;;;;;;;;;5052715;28;20113;-74
2023/12/08 03:43:18;;;;;;;;;;;;;;;;;;5066490;28;20044;-74
2023/12/08 03:45:44;;;;;;;51.97;14.20;;;;;;;;;;5046567;28;19931;-76
2023/12/08 03:48:10;;;;;;;44.38;16.42;;;;;;;;;;5061422;28;20041;-74
2023/12/08 03:50:36;;;;;;;24.00;12.15;;;;;;;;;;5064278;28;20135;-75
2023/12/08 03:53:02;;;;;;;21.05;11.05;;;;;;;;;;5073428;28;20052;-74
2023/12/08 03:55:28;;;;;;;23.73;11.90;;;;;;;;;;5073378;28;20060;-74
2023/12/08 03:57:54;;;;;;;23.45;11.15;;;;;;;;;;5054563;28;20044;-74
2023/12/08 04:00:20;;;;;;;24.83;12.48;;;;;;;;;;5055614;28;20116;-74
2023/12/08 04:02:46;;;;;;;30.30;12.30;;;;;;;;;;5054943;28;20098;-74
2023/12/08 04:05:12;;;;;;;28.75;11.85;;;;;;;;;;5073884;28;20044;-74
2023/12/08 04:07:38;;;;;;;;;;;;;;;;;;5039677;28;20531;-74
2023/12/08 04:10:05;;;;;;;43.25;14.77;;;;;;;;;;5055687;28;19929;-74
2023/12/08 04:12:31;;;;;;;41.60;15.35;;;;;;;;;;5047237;28;20041;-74
2023/12/08 04:14:57;;;;;;;25.58;12.77;;;;;;;;;;5036723;28;20045;-75
2023/12/08 04:17:23;;;;;;;26.23;11.98;;;;;;;;;;5038725;28;20048;-74
2023/12/08 04:19:49;;;;;;;21.90;10.73;;;;;;;;;;5021546;28;20137;-74
2023/12/08 04:22:15;;;;;;;22.50;10.80;;;;;;;;;;5054029;28;20143;-74
2023/12/08 04:24:41;;;;;;;19.27;10.50;;;;;;;;;;5069355;28;20052;-74
2023/12/08 04:27:07;;;;;;;29.23;11.73;;;;;;;;;;5044541;28;20053;-74
2023/12/08 04:29:33;;;;;;;45.78;13.93;;;;;;;;;;5044762;28;20041;-75
2023/12/08 04:31:59;;;;;;;35.38;15.50;;;;;;;;;;5069183;28;20056;-74
2023/12/08 04:34:25;;;;;;;36.00;13.65;;;;;;;;;;5041458;28;20037;-73
2023/12/08 04:36:51;;;;;;;23.65;11.52;;;;;;;;;;5050762;28;20056;-74
2023/12/08 04:39:18;;;;;;;22.80;11.77;;;;;;;;;;5042436;28;20052;-74
2023/12/08 04:41:44;;;;;;;33.28;13.50;;;;;;;;;;5053384;28;20052;-75
2023/12/08 04:44:10;;;;;;;24.83;11.57;;;;;;;;;;5065450;28;20068;-74
2023/12/08 04:46:36;;;;;;;28.80;12.93;;;;;;;;;;5066773;28;20493;-74
2023/12/08 04:49:02;;;;;;;52.38;15.60;;;;;;;;;;5061689;28;20131;-74
2023/12/08 04:51:28;;;;;;;;;;;;;;;;;;5032522;28;20052;-74
2023/12/08 04:53:54;;;;;;;37.72;13.52;;;;;;;;;;5044210;28;19924;-74
2023/12/08 04:56:20;;;;;;;52.70;16.63;;;;;;;;;;5044403;28;20102;-74
2023/12/08 04:58:47;;;;;;;;;;;;;;;;;;5041060;28;20124;-74
2023/12/08 05:01:14;;;;;;;52.25;15.57;;;;;;;;;;5046270;28;19968;-73
2023/12/08 05:03:40;;;;;;;49.97;16.10;;;;;;;;;;5071244;28;20048;-74
2023/12/08 05:06:07;;;;;;;50.85;14.18;;;;;;;;;;5068844;28;20460;-75
2023/12/08 05:08:33;;;;;;;57.53;17.17;;;;;;;;;;5050467;28;20053;-74
2023/12/08 05:10:59;;;;;;;29.92;13.40;;;;;;;;;;5062290;28;20063;-74
2023/12/08 05:13:25;;;;;;;;;;;;;;;;;;5062502;28;20041;-74
2023/12/08 05:15:51;;;;;;;46.03;13.90;;;;;;;;;;5048626;28;19966;-77
2023/12/08 05:18:17;;;;;;;;;;;;;;;;;;5046714;28;20102;-73
2023/12/08 05:20:43;;;;;;;22.08;11.43;;;;;;;;;;5025709;28;19920;-75
2023/12/08 05:23:09;;;;;;;;;;;;;;;;;;5058540;28;20060;-74
2023/12/08 05:25:35;;;;;;;25.30;12.32;;;;;;;;;;5044838;28;20385;-74
2023/12/08 05:28:01;;;;;;;;;;;;;;;;;;5049406;28;20041;-74
2023/12/08 05:30:27;;;;;;;24.92;11.30;;;;;;;;;;5063794;28;19924;-74
2023/12/08 05:32:54;;;;;;;23.50;11.07;;;;;;;;;;5047867;28;20049;-76
2023/12/08 05:35:20;;;;;;;49.05;15.25;;;;;;;;;;5044152;28;20053;-73
2023/12/08 05:37:46;;;;;;;;;;;;;;;;;;5066714;28;20053;-73
2023/12/08 05:40:12;;;;;;;26.77;12.00;;;;;;;;;;5037819;28;20125;-74
2023/12/08 05:42:39;;;;;;;50.13;13.80;;;;;;;;;;5060171;28;20041;-74
2023/12/08 05:45:05;;;;;;;52.50;15.70;;;;;;;;;;5042937;28;20363;-75
2023/12/08 05:47:31;;;;;;;27.25;12.57;;;;;;;;;;5050729;28;20037;-74
2023/12/08 05:49:57;;;;;;;23.38;11.18;;;;;;;;;;5059132;28;20045;-75
2023/12/08 05:52:23;;;;;;;40.63;12.68;;;;;;;;;;5053078;28;20086;-74
2023/12/08 05:54:49;;;;;;;;;;;;;;;;;;5037988;28;20044;-74
2023/12/08 05:57:15;;;;;;;25.75;11.13;;;;;;;;;;5052671;28;19927;-73
2023/12/08 05:59:41;;;;;;;;;;;;;;;;;;5038278;28;20052;-74
2023/12/08 06:02:07;;;;;;;25.73;12.38;;;;;;;;;;5053081;28;19975;-74
2023/12/08 06:04:33;;;;;;;;;;;;;;;;;;5070706;28;20169;-74
2023/12/08 06:06:59;;;;;;;28.90;12.27;;;;;;;;;;5034281;28;20370;-74
2023/12/08 06:09:25;;;;;;;;;;;;;;;;;;5054582;28;20052;-74
2023/12/08 06:11:51;;;;;;;27.35;12.38;;;;;;;;;;5052998;28;19920;-74
2023/12/08 06:14:17;;;;;;;44.05;13.82;;;;;;;;;;5049584;28;20392;-74
2023/12/08 06:16:43;;;;;;;32.78;13.38;;;;;;;;;;5051140;28;20049;-75
2023/12/08 06:19:09;;;;;;;;;;;;;;;;;;5057634;28;20075;-74
2023/12/08 06:21:35;;;;;;;29.65;13.95;;;;;;;;;;5034545;28;19921;-74
2023/12/08 06:24:01;;;;;;;26.90;12.98;;;;;;;;;;5051495;28;20072;-75
2023/12/08 06:26:27;;;;;;;;;;;;;;;;;;5053964;28;20123;-73
2023/12/08 06:28:54;;;;;;;33.13;13.95;;;;;;;;;;5044530;28;20031;-73
2023/12/08 06:31:20;;;;;;;34.35;13.80;;;;;;;;;;5042775;28;20037;-75
2023/12/08 06:33:46;;;;;;;29.33;13.40;;;;;;;;;;5052486;28;20044;-74
2023/12/08 06:36:12;;;;;;;;;;;;;;;;;;5059611;28;20049;-74
2023/12/08 06:38:38;;;;;;;59.33;17.10;;;;;;;;;;5062861;28;20011;-74
2023/12/08 06:41:04;;;;;;;42.00;16.13;;;;;;;;;;5043076;28;20048;-74
2023/12/08 06:43:31;;;;;;;27.90;13.02;;;;;;;;;;5035874;28;20051;-73
2023/12/08 06:45:57;;;;;;;26.25;12.45;;;;;;;;;;5041153;28;20049;-74
2023/12/08 06:48:23;;;;;;;;;;;;;;;;;;5035003;28;20045;-74
2023/12/08 06:50:51;;;;;;;32.10;13.55;;;;;;;;;;5042079;28;19963;-74
2023/12/08 06:53:17;;;;;;;50.00;14.30;;;;;;;;;;5064077;28;20048;-74
2023/12/08 06:55:44;;;;;;;27.10;13.13;;;;;;;;;;5064719;28;20120;-74
2023/12/08 06:58:10;;;;;;;28.63;13.35;;;;;;;;;;5039902;28;20079;-74
2023/12/08 07:00:36;;;;;;;26.40;12.32;;;;;;;;;;5043587;28;20037;-74
2023/12/08 07:03:03;;;;;;;;;;;;;;;;;;5061538;28;20470;-75
2023/12/08 07:05:29;;;;;;;64.38;15.30;;;;;;;;;;5032202;28;19920;-74
2023/12/08 07:07:56;;;;;;;;;;;;;;;;;;5043148;28;20429;-76
2023/12/08 07:10:22;;;;;;;40.78;14.30;;;;;;;;;;5042321;28;20571;-74
2023/12/08 07:12:48;;;;;;;;;;;;;;;;;;5041887;28;20041;-74
2023/12/08 07:15:14;;;;;;;58.25;16.95;;;;;;;;;;5043114;28;19924;-75
2023/12/08 07:17:40;;;;;;;;;;;;;;;;;;5059732;28;20055;-75
2023/12/08 07:20:09;;;;;;;40.15;13.68;;;;;;;;;;5043134;28;20461;-74
2023/12/08 07:22:35;;;;;;;23.40;11.93;;;;;;;;;;5041518;28;20057;-74
2023/12/08 07:25:05;;;;;;;50.20;16.02;;;;;;;;;;5045226;28;20036;-74
2023/12/08 07:27:32;;;;;;;35.53;12.38;;;;;;;;;;5045452;28;20426;-74
2023/12/08 07:29:58;;;;;;;27.23;12.88;;;;;;;;;;5020613;28;20417;-74
2023/12/08 07:32:24;;;;;;;22.65;11.77;;;;;;;;;;5054515;28;20049;-74
2023/12/08 07:34:50;;;;;;;;;;;;;;;;;;5047485;28;20494;-74
2023/12/08 07:37:16;;;;;;;28.98;12.70;;;;;;;;;;5042065;28;19971;-74
2023/12/08 07:39:42;;;;;;;;;;;;;;;;;;5043633;28;20048;-74
2023/12/08 07:42:08;;;;;;;44.75;15.43;;;;;;;;;;5054471;28;20316;-75
2023/12/08 07:44:37;;;;;;;;;;;;;;;;;;5048669;28;20064;-75
2023/12/08 07:47:04;;;;;;;30.52;13.32;;;;;;;;;;5046063;28;20378;-76
2023/12/08 07:49:30;;;;;;;28.10;13.40;;;;;;;;;;5049800;28;20043;-75
2023/12/08 07:51:57;;;;;;;25.83;12.55;;;;;;;;;;5034066;28;20479;-77
2023/12/08 07:54:23;;;;;;;27.88;12.70;;;;;;;;;;5034759;28;20502;-75
2023/12/08 07:56:49;;;;;;;28.10;12.10;;;;;;;;;;5032714;28;20042;-75
2023/12/08 07:59:15;;;;;;;25.27;12.93;;;;;;;;;;5031683;28;20410;-75
2023/12/08 08:01:41;;;;;;;29.13;13.35;;;;;;;;;;5048976;28;20443;-74
2023/12/08 08:04:07;;;;;;;;;;;;;;;;;;5064348;28;20080;-77
2023/12/08 08:06:33;;;;;;;24.90;12.85;;;;;;;;;;5041423;28;20400;-75
2023/12/08 08:08:59;;;;;;;31.42;13.30;;;;;;;;;;5069584;28;20052;-75
2023/12/08 08:11:25;;;;;;;;;;;;;;;;;;5069537;28;20064;-75
2023/12/08 08:13:51;;;;;;;37.38;14.52;;;;;;;;;;5052082;28;19920;-76
2023/12/08 08:16:17;;;;;;;33.35;12.93;;;;;;;;;;5049955;28;20056;-74
2023/12/08 08:18:43;;;;;;;24.50;12.88;;;;;;;;;;5016041;28;20042;-75
2023/12/08 08:21:09;;;;;;;;;;;;;;;;;;5050177;28;20042;-77
2023/12/08 08:23:35;;;;;;;37.25;13.98;;;;;;;;;;5050008;28;19928;-74
2023/12/08 08:26:02;;;;;;;;;;;;;;;;;;5051003;28;20120;-74
2023/12/08 08:28:28;;;;;;;32.33;12.70;;;;;;;;;;5039264;28;19924;-74
2023/12/08 08:30:54;;;;;;;23.92;11.90;;;;;;;;;;5040745;28;20048;-75
2023/12/08 08:33:20;;;;;;;;;;;;;;;;;;5045068;28;20045;-74
2023/12/08 08:35:47;;;;;;;32.38;13.80;;;;;;;;;;5058873;28;19921;-78
2023/12/08 08:38:14;;;;;;;34.08;13.13;;;;;;;;;;5035811;28;20033;-74
2023/12/08 08:40:40;;;;;;;30.45;12.48;;;;;;;;;;5038632;28;20391;-76
2023/12/08 08:43:06;;;;;;;28.98;13.45;;;;;;;;;;5058354;28;20049;-76
2023/12/08 08:45:32;;;;;;;37.35;14.68;;;;;;;;;;5057381;28;20044;-75
2023/12/08 08:47:58;;;;;;;;;;;;;;;;;;5048615;28;20052;-75
2023/12/08 08:50:24;;;;;;;29.30;13.00;;;;;;;;;;5042047;28;19925;-76
2023/12/08 08:52:50;;;;;;;;;;;;;;;;;;5049075;28;20052;-76
2023/12/08 08:55:16;;;;;;;35.08;13.52;;;;;;;;;;5038458;28;19921;-78
2023/12/08 08:57:44;;;;;;;;;;;;;;;;;;5054989;28;20456;-75
2023/12/08 09:00:12;;;;;;;32.72;12.52;;;;;;;;;;5053300;28;20020;-77
2023/12/08 09:02:38;;;;;;;31.45;12.95;;;;;;;;;;5019459;28;20044;-76
2023/12/08 09:05:05;;;;;;;33.00;14.25;;;;;;;;;;5024507;28;20045;-77
2023/12/08 09:07:31;;;;;;;28.92;13.18;;;;;;;;;;5027465;28;20057;-75
2023/12/08 09:09:58;;;;;;;27.75;13.50;;;;;;;;;;5024096;28;20065;-76
2023/12/08 09:12:24;;;;;;;33.92;14.43;;;;;;;;;;5020743;28;20115;-76
2023/12/08 09:14:50;;;;;;;33.22;13.82;;;;;;;;;;5059213;28;20045;-75
2023/12/08 09:17:16;;;;;;;;;;;;;;;;;;5044449;28;20040;-77
2023/12/08 09:19:42;;;;;;;34.85;13.95;;;;;;;;;;5040396;28;19928;-75
2023/12/08 09:22:09;;;;;;;29.33;12.95;;;;;;;;;;5043584;28;20045;-75
2023/12/08 09:24:35;;;;;;;;;;;;;;;;;;5041918;28;20059;-74
2023/12/08 09:27:03;;;;;;;24.70;12.75;;;;;;;;;;5055052;28;19921;-75
2023/12/08 09:29:29;;;;;;;27.10;13.57;;;;;;;;;;5056978;28;20057;-75
2023/12/08 09:31:55;;;;;;;29.20;14.00;;;;;;;;;;5034208;28;20051;-74
2023/12/08 09:34:21;;;;;;;38.72;14.73;;;;;;;;;;5062202;28;20130;-77
2023/12/08 09:36:47;;;;;;;27.88;12.88;;;;;;;;;;5063176;28;20041;-77
2023/12/08 09:39:13;;;;;;;30.63;15.13;;;;;;;;;;5064350;28;20044;-76
2023/12/08 09:41:40;;;;;;;28.60;13.63;;;;;;;;;;5041963;28;20521;-76
2023/12/08 09:44:15;;;;;;;28.40;13.70;;;;;;;;;;5043097;28;20048;-76
2023/12/08 09:46:46;;;;;;;34.65;16.65;;;;;;;;;;5059831;28;20137;-76
2023/12/08 09:49:17;;;;;;;46.10;24.83;;;;;;;;;;5060710;28;20040;-77
2023/12/08 09:51:44;;;;;;;49.35;20.60;;;;;;;;;;5050795;28;20090;-77
2023/12/08 09:54:10;;;;;;;42.88;19.30;;;;;;;;;;5040687;28;20048;-76
2023/12/08 09:56:36;;;;;;;36.17;14.35;;;;;;;;;;5028300;28;20054;-76
2023/12/08 09:59:02;;;;;;;;;;;;;;;;;;5033127;28;20075;-76
2023/12/08 10:01:28;;;;;;;28.85;13.88;;;;;;;;;;5055154;28;19948;-75
2023/12/08 10:03:54;;;;;;;;;;;;;;;;;;5022762;28;20056;-76
2023/12/08 10:06:22;;;;;;;35.60;15.85;;;;;;;;;;5050321;28;19944;-75
2023/12/08 10:08:50;;;;;;;30.05;14.40;;;;;;;;;;5049995;28;20057;-76
2023/12/08 10:11:16;;;;;;;35.15;16.17;;;;;;;;;;5057517;28;20048;-75
2023/12/08 10:13:42;;;;;;;;;;;;;;;;;;5059099;28;20040;-74
2023/12/08 10:16:08;;;;;;;31.10;15.50;;;;;;;;;;5048589;28;19924;-74
2023/12/08 10:18:34;;;;;;;31.42;14.63;;;;;;;;;;5061425;28;20033;-74
2023/12/08 10:21:19;;;;;;;51.40;15.60;;;;;;;;;;5043923;28;20195;-74
2023/12/08 10:23:46;;;;;;;32.70;15.98;;;;;;;;;;5038592;28;20323;-74
2023/12/08 10:26:13;;;;;;;82.75;43.55;;;;;;;;;;5044315;28;20045;-74
2023/12/08 10:28:40;;;;;;;45.45;21.85;;;;;;;;;;5059651;28;20056;-74
2023/12/08 10:31:06;;;;;;;37.17;17.75;;;;;;;;;;5041212;28;20132;-75
2023/12/08 10:33:32;;;;;;;47.70;17.60;;;;;;;;;;5064730;28;20072;-73
2023/12/08 10:35:58;;;;;;;35.70;16.85;;;;;;;;;;5059989;28;20084;-76
2023/12/08 10:38:24;;;;;;;36.25;16.70;;;;;;;;;;5060910;28;20045;-75
2023/12/08 10:40:55;;;;;;;32.10;16.83;;;;;;;;;;5050243;28;20052;-74
2023/12/08 10:43:25;;;;;;;48.83;17.52;;;;;;;;;;5043276;28;20043;-74
2023/12/08 10:45:55;;;;;;;34.00;14.80;;;;;;;;;;5042500;28;20052;-77
2023/12/08 10:48:27;;;;;;;31.33;15.52;;;;;;;;;;5066061;28;20040;-74
2023/12/08 10:50:53;;;;;;;35.88;16.52;;;;;;;;;;5069974;28;20048;-74
2023/12/08 10:53:20;;;;;;;48.05;22.05;;;;;;;;;;5039919;28;20136;-74
2023/12/08 10:55:56;;;;;;;48.58;17.60;;;;;;;;;;5033589;28;20049;-75
2023/12/08 10:58:23;;;;;;;70.53;19.50;;;;;;;;;;5033251;28;20394;-73
2023/12/08 11:00:54;;;;;;;37.15;16.95;;;;;;;;;;5038400;28;20291;-74
2023/12/08 11:03:23;;;;;;;39.42;16.67;;;;;;;;;;5069802;28;20087;-74
2023/12/08 11:06:00;;;;;;;39.78;17.52;;;;;;;;;;5067350;28;20107;-73
2023/12/08 11:08:27;;;;;;;39.20;16.35;;;;;;;;;;5043435;28;20040;-74
2023/12/08 11:10:57;;;;;;;41.47;17.17;;;;;;;;;;5056936;28;20040;-75
2023/12/08 11:13:27;;;;;;;52.72;17.80;;;;;;;;;;5074240;28;20048;-74
2023/12/08 11:16:12;;;;;;;53.40;18.80;;;;;;;;;;5060962;28;20048;-73
2023/12/08 11:18:41;;;;;;;51.17;19.50;;;;;;;;;;5045037;28;20044;-74
2023/12/08 11:21:08;;;;;;;47.15;17.77;;;;;;;;;;5037489;28;20397;-74
2023/12/08 11:23:35;;;;;;;82.53;22.58;;;;;;;;;;5043540;28;20076;-75
2023/12/08 11:26:08;;;;;;;66.47;20.85;;;;;;;;;;5072581;28;20051;-73
2023/12/08 11:28:45;;;;;;;97.75;25.35;;;;;;;;;;5072686;28;20131;-75
2023/12/08 11:31:24;;;;;;;58.60;18.90;;;;;;;;;;5056499;28;20087;-74
2023/12/08 11:33:59;;;;;;;49.42;17.67;;;;;;;;;;5056910;28;20041;-73
2023/12/08 11:36:30;;;;;;;46.25;18.70;;;;;;;;;;5036780;28;20044;-73
2023/12/08 11:38:56;;;;;;;48.40;17.70;;;;;;;;;;5053090;28;20152;-75
2023/12/08 11:41:22;;;;;;;;;;;;;;;;;;5065865;28;20131;-74
2023/12/08 11:43:48;;;;;;;57.15;18.98;;;;;;;;;;5046736;28;20011;-75
2023/12/08 11:46:14;;;;;;;;;;;;;;;;;;5073066;28;20041;-74
2023/12/08 11:48:41;;;;;;;68.82;20.35;;;;;;;;;;5038897;28;20365;-76
2023/12/08 11:51:10;;;;;;;56.10;19.95;;;;;;;;;;5056217;28;20076;-73
2023/12/08 11:53:56;;;;;;;82.03;21.30;;;;;;;;;;5045907;28;20044;-74
2023/12/08 11:56:41;;;;;;;45.60;17.73;;;;;;;;;;5036582;28;20056;-74
2023/12/08 11:59:07;;;;;;;57.63;18.33;;;;;;;;;;5035436;28;20210;-74
2023/12/08 12:01:33;;;;;;;;;;;;;;;;;;5043308;28;20494;-74
2023/12/08 12:04:01;;;;;;;47.55;18.27;;;;;;;;;;5054766;28;19935;-74
2023/12/08 12:06:28;;;;;;;51.53;18.05;;;;;;;;;;5055126;28;20099;-74
2023/12/08 12:08:55;;;;;;;60.47;20.67;;;;;;;;;;5044579;28;20252;-74
2023/12/08 12:11:22;;;;;;;87.63;22.83;;;;;;;;;;5055956;28;20461;-74
2023/12/08 12:13:51;;;;;;;60.88;19.55;;;;;;;;;;5038553;28;20048;-74
2023/12/08 12:16:18;;;;;;;62.08;19.45;;;;;;;;;;5055833;28;20049;-74
2023/12/08 12:18:44;;;;;;;58.42;18.63;;;;;;;;;;5037987;28;20397;-76
2023/12/08 12:21:10;;;;;;;;;;;;;;;;;;5039930;28;20052;-74
2023/12/08 12:23:37;;;;;;;90.22;20.73;;;;;;;;;;5055287;28;19924;-74
2023/12/08 12:26:09;;;;;;;91.05;24.13;;;;;;;;;;5073813;28;20681;-74
2023/12/08 12:28:35;;;;;;;69.05;23.40;;;;;;;;;;5071778;28;20052;-74
2023/12/08 12:31:01;;;;;;;68.85;21.55;;;;;;;;;;5072827;28;20044;-74
2023/12/08 12:33:27;;;;;;;;;;;;;;;;;;5072969;28;20371;-73
2023/12/08 12:35:53;;;;;;;74.17;20.27;;;;;;;;;;5055530;28;20024;-74
2023/12/08 12:38:19;;;;;;;;;;;;;;;;;;5064702;28;20083;-74
2023/12/08 12:40:46;;;;;;;66.57;19.83;;;;;;;;;;5042427;28;20062;-75
2023/12/08 12:43:16;;;;;;;62.10;21.40;;;;;;;;;;5064164;28;20059;-74
2023/12/08 12:45:42;;;;;;;75.18;20.83;;;;;;;;;;5035754;28;20417;-74
2023/12/08 12:48:08;;;;;;;;;;;;;;;;;;5053552;28;20117;-74
2023/12/08 12:50:51;;;;;;;60.10;20.83;;;;;;;;;;5035804;28;20384;-74
2023/12/08 12:53:18;;;;;;;63.58;22.92;;;;;;;;;;5040423;28;20382;-75
2023/12/08 12:55:45;;;;;;;67.10;21.63;;;;;;;;;;5052358;28;20467;-74
2023/12/08 12:58:20;;;;;;;68.88;23.25;;;;;;;;;;5039044;28;20048;-73
2023/12/08 13:00:47;;;;;;;74.30;21.80;;;;;;;;;;5053149;28;20041;-74
2023/12/08 13:03:14;;;;;;;91.35;23.52;;;;;;;;;;5040721;28;20504;-73
2023/12/08 13:05:59;;;;;;;62.10;21.80;;;;;;;;;;5055556;28;20048;-74
2023/12/08 13:08:25;;;;;;;76.60;21.73;;;;;;;;;;5036985;28;20053;-74
2023/12/08 13:10:53;;;;;;;81.95;22.17;;;;;;;;;;5067756;28;20048;-76
2023/12/08 13:13:19;;;;;;;92.60;25.30;;;;;;;;;;5054239;28;20131;-74
2023/12/08 13:15:45;;;;;;;67.13;21.77;;;;;;;;;;5055355;28;20044;-73
2023/12/08 13:18:11;;;;;;;83.07;22.67;;;;;;;;;;5053176;28;20127;-74
2023/12/08 13:20:40;;;;;;;;;;;;;;;;;;5020929;28;20049;-74
2023/12/08 13:23:07;;;;;;;85.63;22.10;;;;;;;;;;5048433;28;19928;-75
2023/12/08 13:25:33;;;;;;;71.20;22.00;;;;;;;;;;5050335;28;20095;-76
2023/12/08 13:27:59;;;;;;;;;;;;;;;;;;5051429;28;20053;-75
2023/12/08 13:30:25;;;;;;;101.93;26.27;;;;;;;;;;5051801;28;19924;-76
2023/12/08 13:32:53;;;;;;;86.85;23.25;;;;;;;;;;5033190;28;20053;-77
2023/12/08 13:35:19;;;;;;;74.97;23.15;;;;;;;;;;5034308;28;20127;-75
2023/12/08 13:37:45;;;;;;;71.68;22.00;;;;;;;;;;5051206;28;20041;-74
2023/12/08 13:40:11;;;;;;;85.85;23.52;;;;;;;;;;5050996;28;20041;-75
2023/12/08 13:42:38;;;;;;;117.47;25.25;;;;;;;;;;5033598;28;20076;-74
2023/12/08 13:45:04;;;;;;;99.97;26.38;;;;;;;;;;5048501;28;20455;-74
2023/12/08 13:47:30;;;;;;;90.47;25.38;;;;;;;;;;5033848;28;20398;-74
2023/12/08 13:49:57;;;;;;;;;;;;;;;;;;5036310;28;20053;-74
2023/12/08 13:52:23;;;;;;;112.55;25.40;;;;;;;;;;5047775;28;19921;-74
2023/12/08 13:54:49;;;;;;;;;;;;;;;;;;5032815;28;20372;-74
2023/12/08 13:57:15;;;;;;;111.55;25.85;;;;;;;;;;5030685;28;19928;-73
2023/12/08 13:59:41;;;;;;;97.07;24.75;;;;;;;;;;5042915;28;20056;-75
2023/12/08 14:02:07;;;;;;;159.40;31.02;;;;;;;;;;5066655;28;20440;-74
2023/12/08 14:04:33;;;;;;;103.82;27.75;;;;;;;;;;5062849;28;20045;-73
2023/12/08 14:07:01;;;;;;;106.95;25.90;;;;;;;;;;5031437;28;20144;-75
2023/12/08 14:09:27;;;;;;;92.13;26.73;;;;;;;;;;5042868;28;20621;-73
2023/12/08 14:11:53;;;;;;;;;;;;;;;;;;5034187;28;20375;-75
2023/12/08 14:14:20;;;;;;;92.38;25.08;;;;;;;;;;5049933;28;19927;-74
2023/12/08 14:16:47;;;;;;;104.95;27.25;;;;;;;;;;5049910;28;20080;-74
2023/12/08 14:19:13;;;;;;;103.22;26.88;;;;;;;;;;5066561;28;20088;-73
2023/12/08 14:21:39;;;;;;;84.13;24.45;;;;;;;;;;5065757;28;20048;-74
2023/12/08 14:24:05;;;;;;;95.47;27.17;;;;;;;;;;5066633;28;20061;-74
2023/12/08 14:26:31;;;;;;;;;;;;;;;;;;5054463;28;20053;-74
2023/12/08 14:28:57;;;;;;;95.55;26.42;;;;;;;;;;5035979;28;19946;-76
2023/12/08 14:31:23;;;;;;;;;;;;;;;;;;5060997;28;20057;-74
2023/12/08 14:33:49;;;;;;;114.85;26.52;;;;;;;;;;5056236;28;20403;-74
2023/12/08 14:36:15;;;;;;;167.55;31.70;;;;;;;;;;5071136;28;20044;-74
2023/12/08 14:38:41;;;;;;;;;;;;;;;;;;5071869;28;20078;-74